Terminal Aerodrome Forecast
Issued by NWS Tuscon, AZ

Home | Current Version | Previous Version | Text Only | Print | Product List | Glossary On
Versions: 1 2 3 4 5 6 7 8 9 10 11 12 13 14
033
FTUS45 KTWC 231720
TAFTUS
TAF
KTUS 231720Z 2318/2418 29008KT P6SM SCT150
     FM232100 31011G18KT P6SM SCT150
     FM240230 21006KT P6SM SCT200
     FM240900 14007KT P6SM SCT150=

USA.gov is the U.S. government's official web portal to all federal, state and local government web resources and services.